createdAt,value
2022-08-09T00:00:23.143Z,17.16
2022-08-09T00:02:51.566Z,17.46
2022-08-09T00:06:19.301Z,17.57
2022-08-09T00:08:13.029Z,16.98
2022-08-09T00:10:58.711Z,17.11
2022-08-09T00:13:26.621Z,17.10
2022-08-09T00:15:59.970Z,17.04
2022-08-09T00:18:34.813Z,17.04
2022-08-09T00:21:04.920Z,17.05
2022-08-09T00:23:55.606Z,16.73
2022-08-09T00:26:32.562Z,16.67
2022-08-09T00:29:01.502Z,16.93
2022-08-09T00:32:00.055Z,16.91
2022-08-09T00:34:19.422Z,16.75
2022-08-09T00:36:47.683Z,16.99
2022-08-09T00:40:12.431Z,16.81
2022-08-09T00:44:14.160Z,17.05
2022-08-09T00:44:53.695Z,17.18
2022-08-09T00:47:21.785Z,17.21
2022-08-09T00:49:54.951Z,16.83
2022-08-09T00:52:30.514Z,17.06
2022-08-09T00:55:01.427Z,17.30
2022-08-09T00:57:33.719Z,17.30
2022-08-09T01:00:05.450Z,16.86
2022-08-09T01:02:52.065Z,17.13
2022-08-09T01:05:50.663Z,17.28
2022-08-09T01:08:26.784Z,16.83
2022-08-09T01:11:09.093Z,16.40
2022-08-09T01:13:59.086Z,16.26
2022-08-09T01:16:33.462Z,16.16
2022-08-09T01:19:17.218Z,16.38
2022-08-09T01:22:16.447Z,16.67
2022-08-09T01:24:56.755Z,16.95
2022-08-09T01:27:27.660Z,16.86
2022-08-09T01:30:01.084Z,16.90
2022-08-09T01:32:34.630Z,17.07
2022-08-09T01:35:18.283Z,17.08
2022-08-09T01:38:08.129Z,16.97
2022-08-09T01:40:42.285Z,16.70
2022-08-09T01:43:12.969Z,16.58
2022-08-09T01:45:46.469Z,16.74
2022-08-09T01:48:17.404Z,16.69
2022-08-09T01:50:55.136Z,16.32
2022-08-09T01:53:29.215Z,15.87
2022-08-09T01:56:10.741Z,16.14
2022-08-09T01:58:41.614Z,16.20
2022-08-09T02:01:11.726Z,16.59
2022-08-09T02:03:48.341Z,16.79
2022-08-09T02:06:39.895Z,16.73
2022-08-09T02:09:15.556Z,16.77
2022-08-09T02:11:45.131Z,16.64
2022-08-09T02:14:25.579Z,16.64
2022-08-09T02:17:14.663Z,16.52
2022-08-09T02:19:45.789Z,16.29
2022-08-09T02:22:27.467Z,16.36
2022-08-09T02:25:06.811Z,16.45
2022-08-09T02:27:43.457Z,16.60
2022-08-09T02:30:30.462Z,16.36
2022-08-09T02:33:01.710Z,16.46
2022-08-09T02:36:01.986Z,16.20
2022-08-09T02:38:28.721Z,16.26
2022-08-09T02:41:00.241Z,16.15
2022-08-09T02:43:47.743Z,16.01
2022-08-09T02:46:23.957Z,15.95
2022-08-09T02:48:53.156Z,16.18
2022-08-09T02:51:24.272Z,16.22
2022-08-09T02:54:00.829Z,15.91
2022-08-09T02:56:31.778Z,16.08
2022-08-09T02:59:01.873Z,15.86
2022-08-09T03:01:58.557Z,16.11
2022-08-09T03:04:28.914Z,16.07
2022-08-09T03:07:12.213Z,15.90
2022-08-09T03:09:43.311Z,15.82
2022-08-09T03:12:22.966Z,16.08
2022-08-09T03:14:51.821Z,16.00
2022-08-09T03:17:27.155Z,15.98
2022-08-09T03:20:03.276Z,16.03
2022-08-09T03:22:42.058Z,16.18
2022-08-09T03:25:21.604Z,16.22
2022-08-09T03:27:57.862Z,15.84
2022-08-09T03:30:30.069Z,15.91
2022-08-09T03:33:05.810Z,15.85
2022-08-09T03:36:13.804Z,16.22
2022-08-09T03:38:30.354Z,15.95
2022-08-09T03:40:58.944Z,16.05
2022-08-09T03:43:31.653Z,15.86
2022-08-09T03:46:04.683Z,15.69
2022-08-09T03:48:54.876Z,15.57
2022-08-09T03:51:55.696Z,15.43
2022-08-09T03:54:12.077Z,15.71
2022-08-09T03:56:41.729Z,15.79
2022-08-09T03:59:13.735Z,15.86
2022-08-09T04:01:45.833Z,16.02
2022-08-09T04:04:16.218Z,16.11
2022-08-09T04:06:48.733Z,16.04
2022-08-09T04:09:44.479Z,16.00
2022-08-09T04:12:31.089Z,15.97
2022-08-09T04:15:01.750Z,15.90
2022-08-09T04:17:39.417Z,15.62
2022-08-09T04:20:13.983Z,15.33
2022-08-09T04:22:44.186Z,15.84
2022-08-09T04:25:13.489Z,15.80
2022-08-09T04:27:42.626Z,16.28
2022-08-09T04:30:20.851Z,16.39
2022-08-09T04:32:51.972Z,16.09
2022-08-09T04:35:21.747Z,16.40
2022-08-09T04:37:50.206Z,16.44
2022-08-09T04:40:28.478Z,16.46
2022-08-09T04:43:04.237Z,16.22
2022-08-09T04:45:35.983Z,16.34
2022-08-09T04:48:21.175Z,16.62
2022-08-09T04:50:53.142Z,16.42
2022-08-09T04:53:20.956Z,16.75
2022-08-09T04:55:57.656Z,16.98
2022-08-09T04:58:27.127Z,17.04
2022-08-09T05:00:55.315Z,17.53
2022-08-09T05:03:40.434Z,17.17
2022-08-09T05:06:21.998Z,17.27
2022-08-09T05:09:00.652Z,17.21
2022-08-09T05:11:32.205Z,17.55
2022-08-09T05:14:05.710Z,17.87
2022-08-09T05:16:58.160Z,17.94
2022-08-09T05:19:25.679Z,18.05
2022-08-09T05:21:56.551Z,18.18
2022-08-09T05:24:24.701Z,18.24
2022-08-09T05:26:52.599Z,18.04
2022-08-09T05:29:22.178Z,17.94
2022-08-09T05:31:59.105Z,18.03
2022-08-09T05:34:30.856Z,18.00
2022-08-09T05:37:06.301Z,18.15
2022-08-09T05:39:36.047Z,18.24
2022-08-09T05:42:10.258Z,18.28
2022-08-09T05:44:47.753Z,18.68
2022-08-09T05:47:19.159Z,18.91
2022-08-09T05:50:31.249Z,19.12
2022-08-09T05:52:36.491Z,19.48
2022-08-09T05:55:08.553Z,19.30
2022-08-09T05:57:55.548Z,19.51
2022-08-09T06:00:24.722Z,19.56
2022-08-09T06:02:54.117Z,19.39
2022-08-09T06:05:30.806Z,19.84
2022-08-09T06:08:19.410Z,20.04
2022-08-09T06:10:52.202Z,19.82
2022-08-09T06:13:20.837Z,20.23
2022-08-09T06:15:51.389Z,20.55
2022-08-09T06:18:20.451Z,20.68
2022-08-09T06:20:56.461Z,20.89
2022-08-09T06:23:57.410Z,20.84
2022-08-09T06:26:20.292Z,20.83
2022-08-09T06:28:49.673Z,20.68
2022-08-09T06:31:17.480Z,20.85
2022-08-09T06:33:58.672Z,21.10
2022-08-09T06:36:26.997Z,21.07
2022-08-09T06:38:56.918Z,21.10
2022-08-09T06:42:08.224Z,21.48
2022-08-09T06:44:14.421Z,21.67
2022-08-09T06:46:48.172Z,21.72
2022-08-09T06:49:29.213Z,21.82
2022-08-09T06:52:08.530Z,21.64
2022-08-09T06:54:37.745Z,21.51
2022-08-09T06:57:06.871Z,22.33
2022-08-09T07:00:57.273Z,22.06
2022-08-09T07:02:30.813Z,22.34
2022-08-09T07:05:00.051Z,22.14
2022-08-09T07:08:00.847Z,22.39
2022-08-09T07:10:24.025Z,22.49
2022-08-09T07:12:58.245Z,22.24
2022-08-09T07:16:34.791Z,22.60
2022-08-09T07:18:14.994Z,22.82
2022-08-09T07:20:43.458Z,22.82
2022-08-09T07:23:18.598Z,22.77
2022-08-09T07:25:52.034Z,22.91
2022-08-09T07:28:26.203Z,22.90
2022-08-09T07:30:56.478Z,22.41
2022-08-09T07:33:24.389Z,22.62
2022-08-09T07:35:54.182Z,22.97
2022-08-09T07:38:23.665Z,23.21
2022-08-09T07:41:10.986Z,23.47
2022-08-09T07:43:49.540Z,22.90
2022-08-09T07:46:19.330Z,22.76
2022-08-09T07:48:52.740Z,23.27
2022-08-09T07:52:05.685Z,23.73
2022-08-09T07:54:15.196Z,23.13
2022-08-09T07:56:49.677Z,23.35
2022-08-09T07:59:34.233Z,23.56
2022-08-09T08:02:06.755Z,23.52
2022-08-09T08:04:37.835Z,23.24
2022-08-09T08:07:15.199Z,23.80
2022-08-09T08:10:08.720Z,23.99
2022-08-09T08:12:45.103Z,23.91
2022-08-09T08:15:16.856Z,24.08
2022-08-09T08:17:53.763Z,24.77
2022-08-09T08:20:29.298Z,24.59
2022-08-09T08:23:06.415Z,24.23
2022-08-09T08:25:48.382Z,24.24
2022-08-09T08:28:26.236Z,23.92
2022-08-09T08:31:04.682Z,23.36
2022-08-09T08:33:53.773Z,24.17
2022-08-09T08:36:28.713Z,24.69
2022-08-09T08:38:57.255Z,24.45
2022-08-09T08:41:41.806Z,23.94
2022-08-09T08:44:15.589Z,24.26
2022-08-09T08:47:02.080Z,24.57
2022-08-09T08:49:46.284Z,24.52
2022-08-09T08:52:48.519Z,24.82
2022-08-09T08:55:06.341Z,24.38
2022-08-09T08:57:34.984Z,24.41
2022-08-09T09:00:12.751Z,24.63
2022-08-09T09:02:52.250Z,25.19
2022-08-09T09:05:33.066Z,24.54
2022-08-09T09:08:29.372Z,24.68
2022-08-09T09:10:59.165Z,24.44
2022-08-09T09:13:41.945Z,24.74
2022-08-09T09:16:17.205Z,24.56
2022-08-09T09:19:15.619Z,24.98
2022-08-09T09:22:00.706Z,25.28
2022-08-09T09:24:33.192Z,25.18
2022-08-09T09:27:03.979Z,24.92
2022-08-09T09:29:58.049Z,25.22
2022-08-09T09:32:32.227Z,25.11
2022-08-09T09:35:07.687Z,25.46
2022-08-09T09:37:40.484Z,25.36
2022-08-09T09:40:11.515Z,25.40
2022-08-09T09:42:39.729Z,24.84
2022-08-09T09:45:14.440Z,24.92
2022-08-09T09:47:58.590Z,25.19
2022-08-09T09:50:49.409Z,25.27
2022-08-09T09:53:44.216Z,25.64
2022-08-09T09:56:30.875Z,25.04
2022-08-09T09:58:57.757Z,25.69
2022-08-09T10:01:30.992Z,25.70
2022-08-09T10:04:16.198Z,26.33
2022-08-09T10:06:52.159Z,26.35
2022-08-09T10:09:23.885Z,26.93
2022-08-09T10:12:11.984Z,27.73
2022-08-09T10:14:48.251Z,27.31
2022-08-09T10:17:50.681Z,27.50
2022-08-09T10:20:27.557Z,28.74
2022-08-09T10:23:17.126Z,27.78
2022-08-09T10:26:04.412Z,27.64
2022-08-09T10:28:36.027Z,27.48
2022-08-09T10:32:27.760Z,28.21
2022-08-09T10:34:08.510Z,26.88
2022-08-09T10:36:42.263Z,27.60
2022-08-09T10:39:15.825Z,26.79
2022-08-09T10:41:46.221Z,27.21
2022-08-09T10:44:19.473Z,28.08
2022-08-09T10:48:25.946Z,28.36
2022-08-09T10:50:32.868Z,26.81
2022-08-09T10:53:21.267Z,28.22
2022-08-09T10:55:57.867Z,28.98
2022-08-09T10:58:37.319Z,30.16
2022-08-09T11:03:03.252Z,28.99
2022-08-09T11:04:19.873Z,28.06
2022-08-09T11:07:56.678Z,29.04
2022-08-09T11:10:16.296Z,29.55
2022-08-09T11:13:49.497Z,28.66
2022-08-09T11:16:35.583Z,28.18
2022-08-09T11:19:07.925Z,28.72
2022-08-09T11:22:04.929Z,29.33
2022-08-09T11:25:04.523Z,29.28
2022-08-09T11:28:02.837Z,27.89
2022-08-09T11:30:34.656Z,27.95
2022-08-09T11:33:07.403Z,27.33
2022-08-09T11:35:49.177Z,30.02
2022-08-09T11:38:22.388Z,28.26
2022-08-09T11:40:57.204Z,28.72
2022-08-09T11:43:40.654Z,29.13
2022-08-09T11:46:09.435Z,28.01
2022-08-09T11:48:50.149Z,27.63
2022-08-09T11:52:53.929Z,29.28
2022-08-09T11:54:27.472Z,27.79
2022-08-09T11:58:00.166Z,27.85
2022-08-09T12:00:27.312Z,28.70
2022-08-09T12:02:56.083Z,27.53
2022-08-09T12:05:37.703Z,27.91
2022-08-09T12:08:12.399Z,27.50
2022-08-09T12:10:49.779Z,27.64
2022-08-09T12:14:10.614Z,28.85
2022-08-09T12:16:29.221Z,27.53
2022-08-09T12:19:06.550Z,28.10
2022-08-09T12:21:38.521Z,28.13
2022-08-09T12:24:09.867Z,28.63
2022-08-09T12:26:40.408Z,28.17
2022-08-09T12:29:30.055Z,29.41
2022-08-09T12:32:03.579Z,29.40
2022-08-09T12:34:36.005Z,28.77
2022-08-09T12:37:22.288Z,28.84
2022-08-09T12:40:06.978Z,27.44
2022-08-09T12:42:35.877Z,27.88
2022-08-09T12:45:32.089Z,26.76
2022-08-09T12:47:54.724Z,28.67
2022-08-09T12:50:23.528Z,27.82
2022-08-09T12:53:09.400Z,26.73
2022-08-09T12:56:16.166Z,27.94
2022-08-09T12:58:30.283Z,27.11
2022-08-09T13:00:59.583Z,27.56
2022-08-09T13:03:57.125Z,28.63
2022-08-09T13:06:34.969Z,27.99
2022-08-09T13:09:07.848Z,28.12
2022-08-09T13:11:39.655Z,27.71
2022-08-09T13:14:40.563Z,28.14
2022-08-09T13:17:02.078Z,27.53
2022-08-09T13:20:09.067Z,29.34
2022-08-09T13:22:35.262Z,28.54
2022-08-09T13:25:14.068Z,28.57
2022-08-09T13:27:48.217Z,28.86
2022-08-09T13:31:11.024Z,28.45
2022-08-09T13:33:16.894Z,27.77
2022-08-09T13:36:24.827Z,28.89
2022-08-09T13:38:56.595Z,29.79
2022-08-09T13:41:58.144Z,30.53
2022-08-09T13:44:16.933Z,29.71
2022-08-09T13:47:28.789Z,30.51
2022-08-09T13:49:39.863Z,30.32
2022-08-09T13:52:23.241Z,30.25
2022-08-09T13:55:00.197Z,31.09
2022-08-09T13:57:36.399Z,31.46
2022-08-09T14:00:12.526Z,31.15
2022-08-09T14:02:42.953Z,32.80
2022-08-09T14:05:59.082Z,30.43
2022-08-09T14:08:17.813Z,30.54
2022-08-09T14:10:52.012Z,30.23
2022-08-09T14:14:14.657Z,29.37
2022-08-09T14:16:14.442Z,28.56
2022-08-09T14:18:46.019Z,29.25
2022-08-09T14:21:22.312Z,28.06
2022-08-09T14:23:55.662Z,28.70
2022-08-09T14:26:32.936Z,29.04
2022-08-09T14:29:07.893Z,31.18
2022-08-09T14:31:55.085Z,30.28
2022-08-09T14:34:31.243Z,30.74
2022-08-09T14:37:02.756Z,32.10
2022-08-09T14:39:40.506Z,31.02
2022-08-09T14:42:28.729Z,30.78
2022-08-09T14:46:59.034Z,29.51
2022-08-09T14:47:57.848Z,29.74
2022-08-09T14:50:29.154Z,29.04
2022-08-09T14:52:57.664Z,28.87
2022-08-09T14:55:25.695Z,29.54
2022-08-09T14:58:00.779Z,29.55
2022-08-09T15:00:33.166Z,30.33
2022-08-09T15:03:01.541Z,30.15
2022-08-09T15:05:29.757Z,30.27
2022-08-09T15:07:58.337Z,30.07
2022-08-09T15:10:26.919Z,29.27
2022-08-09T15:12:55.517Z,28.65
2022-08-09T15:15:24.098Z,28.66
2022-08-09T15:17:53.535Z,29.32
2022-08-09T15:21:56.706Z,28.64
2022-08-09T15:24:01.407Z,30.27
2022-08-09T15:25:58.807Z,29.29
2022-08-09T15:28:28.482Z,28.81
2022-08-09T15:31:09.820Z,28.44
2022-08-09T15:34:16.267Z,28.62
2022-08-09T15:36:30.012Z,28.30
2022-08-09T15:38:58.873Z,29.18
2022-08-09T15:41:31.672Z,27.26
2022-08-09T15:44:01.750Z,28.24
2022-08-09T15:46:33.744Z,27.41
2022-08-09T15:49:21.948Z,26.41
2022-08-09T15:52:04.876Z,26.64
2022-08-09T15:54:44.745Z,26.13
2022-08-09T15:57:19.155Z,27.75
2022-08-09T16:00:02.954Z,28.30
2022-08-09T16:02:30.684Z,29.28
2022-08-09T16:05:02.479Z,29.77
2022-08-09T16:07:39.238Z,29.11
2022-08-09T16:10:11.379Z,29.62
2022-08-09T16:12:50.609Z,30.16
2022-08-09T16:16:11.421Z,28.50
2022-08-09T16:18:10.209Z,28.92
2022-08-09T16:20:41.635Z,30.37
2022-08-09T16:23:11.488Z,28.87
2022-08-09T16:25:41.008Z,29.22
2022-08-09T16:28:12.207Z,29.22
2022-08-09T16:30:44.700Z,28.99
2022-08-09T16:33:15.822Z,28.99
2022-08-09T16:35:56.810Z,29.07
2022-08-09T16:38:27.897Z,29.30
2022-08-09T16:40:57.862Z,27.97
2022-08-09T16:43:26.604Z,27.41
2022-08-09T16:45:54.689Z,27.98
2022-08-09T16:48:40.748Z,28.25
2022-08-09T16:51:13.844Z,28.13
2022-08-09T16:54:02.383Z,27.92
2022-08-09T16:56:32.896Z,26.97
2022-08-09T16:59:06.869Z,28.35
2022-08-09T17:01:38.861Z,27.22
2022-08-09T17:04:06.881Z,27.94
2022-08-09T17:06:47.496Z,28.05
2022-08-09T17:09:43.861Z,27.98
2022-08-09T17:12:11.901Z,27.38
2022-08-09T17:14:39.742Z,27.10
2022-08-09T17:17:26.422Z,26.59
2022-08-09T17:20:28.673Z,26.95
2022-08-09T17:22:49.748Z,27.48
2022-08-09T17:25:20.420Z,27.51
2022-08-09T17:27:54.659Z,28.46
2022-08-09T17:30:25.903Z,27.16
2022-08-09T17:32:57.452Z,28.06
2022-08-09T17:35:31.155Z,27.10
2022-08-09T17:38:11.869Z,26.83
2022-08-09T17:40:49.531Z,27.15
2022-08-09T17:43:34.270Z,27.59
2022-08-09T17:46:06.073Z,26.53
2022-08-09T17:48:39.512Z,26.61
2022-08-09T17:51:18.691Z,27.30
2022-08-09T17:53:53.565Z,26.94
2022-08-09T17:56:27.907Z,26.38
2022-08-09T17:59:03.046Z,26.49
2022-08-09T18:01:40.905Z,25.72
2022-08-09T18:04:20.583Z,25.34
2022-08-09T18:06:54.190Z,25.26
2022-08-09T18:09:40.332Z,24.60
2022-08-09T18:12:17.424Z,25.20
2022-08-09T18:14:49.767Z,24.50
2022-08-09T18:17:27.590Z,24.54
2022-08-09T18:20:54.437Z,25.13
2022-08-09T18:22:59.883Z,24.39
2022-08-09T18:25:52.811Z,24.67
2022-08-09T18:30:41.353Z,24.65
2022-08-09T18:31:11.898Z,24.53
2022-08-09T18:33:45.204Z,24.13
2022-08-09T18:36:25.726Z,23.63
2022-08-09T18:39:02.562Z,23.50
2022-08-09T18:41:34.709Z,23.65
2022-08-09T18:44:12.497Z,23.75
2022-08-09T18:46:47.375Z,23.37
2022-08-09T18:49:25.994Z,23.42
2022-08-09T18:51:55.465Z,23.46
2022-08-09T18:54:28.500Z,23.18
2022-08-09T18:57:06.214Z,22.63
2022-08-09T18:59:37.259Z,22.70
2022-08-09T19:02:17.336Z,22.35
2022-08-09T19:04:47.847Z,22.37
2022-08-09T19:07:33.316Z,22.10
2022-08-09T19:10:15.231Z,22.09
2022-08-09T19:12:53.186Z,22.14
2022-08-09T19:15:27.814Z,22.10
2022-08-09T19:17:58.335Z,22.03
2022-08-09T19:20:34.208Z,22.30
2022-08-09T19:23:02.522Z,22.35
2022-08-09T19:26:01.554Z,22.27
2022-08-09T19:28:22.486Z,22.73
2022-08-09T19:30:56.782Z,22.78
2022-08-09T19:33:25.325Z,22.57
2022-08-09T19:35:56.820Z,22.32
2022-08-09T19:38:26.751Z,22.05
2022-08-09T19:40:54.766Z,22.18
2022-08-09T19:44:01.952Z,22.36
2022-08-09T19:46:14.865Z,22.36
2022-08-09T19:49:00.566Z,22.24
2022-08-09T19:51:30.858Z,22.52
2022-08-09T19:53:59.214Z,22.23
2022-08-09T19:56:29.414Z,22.26
2022-08-09T19:59:18.163Z,22.07
2022-08-09T20:01:53.079Z,22.06
2022-08-09T20:04:37.457Z,22.02
2022-08-09T20:07:12.380Z,22.15
2022-08-09T20:09:48.982Z,22.41
2022-08-09T20:12:30.217Z,22.20
2022-08-09T20:16:31.886Z,22.26
2022-08-09T20:17:56.404Z,22.26
2022-08-09T20:20:24.978Z,21.46
2022-08-09T20:22:56.399Z,21.43
2022-08-09T20:25:25.327Z,21.34
2022-08-09T20:27:53.313Z,21.08
2022-08-09T20:30:25.182Z,21.28
2022-08-09T20:32:53.627Z,21.33
2022-08-09T20:35:21.834Z,21.18
2022-08-09T20:38:21.566Z,21.24
2022-08-09T20:40:37.595Z,21.55
2022-08-09T20:43:18.835Z,21.32
2022-08-09T20:46:00.704Z,21.31
2022-08-09T20:48:42.625Z,21.29
2022-08-09T20:51:19.472Z,21.00
2022-08-09T20:53:48.660Z,21.07
2022-08-09T20:56:20.919Z,20.90
2022-08-09T20:58:50.538Z,20.53
2022-08-09T21:01:35.287Z,20.67
2022-08-09T21:05:49.038Z,20.61
2022-08-09T21:06:59.661Z,20.24
2022-08-09T21:09:45.220Z,20.48
2022-08-09T21:14:49.091Z,20.58
2022-08-09T21:18:22.356Z,20.43
2022-08-09T21:20:25.475Z,20.66
2022-08-09T21:22:55.100Z,20.46
2022-08-09T21:25:43.744Z,20.10
2022-08-09T21:28:15.845Z,19.80
2022-08-09T21:30:44.418Z,19.74
2022-08-09T21:33:16.067Z,19.66
2022-08-09T21:35:51.183Z,19.70
2022-08-09T21:38:31.455Z,19.52
2022-08-09T21:41:00.143Z,19.52
2022-08-09T21:43:56.415Z,19.88
2022-08-09T21:46:16.357Z,19.86
2022-08-09T21:48:49.099Z,19.62
2022-08-09T21:51:24.341Z,19.57
2022-08-09T21:54:03.892Z,19.69
2022-08-09T21:56:43.571Z,19.72
2022-08-09T21:59:19.770Z,19.29
2022-08-09T22:02:01.321Z,19.13
2022-08-09T22:04:55.771Z,19.10
2022-08-09T22:07:34.993Z,19.15
2022-08-09T22:10:08.534Z,19.01
2022-08-09T22:12:38.064Z,19.11
2022-08-09T22:15:16.591Z,19.28
2022-08-09T22:17:46.317Z,19.45
2022-08-09T22:20:17.019Z,19.41
2022-08-09T22:22:50.687Z,19.56
2022-08-09T22:26:06.899Z,19.56
2022-08-09T22:28:07.414Z,19.59
2022-08-09T22:30:36.547Z,19.26
2022-08-09T22:33:09.633Z,19.16
2022-08-09T22:36:01.188Z,19.08
2022-08-09T22:38:27.021Z,19.35
2022-08-09T22:40:57.786Z,19.11
2022-08-09T22:44:02.336Z,19.19
2022-08-09T22:48:16.723Z,18.92
2022-08-09T22:49:09.687Z,19.08
2022-08-09T22:51:43.449Z,19.03
2022-08-09T22:54:21.407Z,19.12
2022-08-09T22:56:54.693Z,18.54
2022-08-09T22:59:57.131Z,18.76
2022-08-09T23:02:14.966Z,18.89
2022-08-09T23:04:54.266Z,18.84
2022-08-09T23:08:22.206Z,19.02
2022-08-09T23:10:30.783Z,19.11
2022-08-09T23:12:58.721Z,19.05
2022-08-09T23:15:26.789Z,18.68
2022-08-09T23:17:54.889Z,19.01
2022-08-09T23:20:23.311Z,18.92
2022-08-09T23:22:52.490Z,18.88
2022-08-09T23:25:20.252Z,18.83
2022-08-09T23:27:57.465Z,18.65
2022-08-09T23:30:35.776Z,18.49
2022-08-09T23:33:03.611Z,18.59
2022-08-09T23:35:31.393Z,18.54
2022-08-09T23:38:21.076Z,18.56
2022-08-09T23:40:51.261Z,18.48
2022-08-09T23:43:19.164Z,18.71
2022-08-09T23:45:46.972Z,18.51
2022-08-09T23:48:14.810Z,18.53
2022-08-09T23:50:42.611Z,18.77
2022-08-09T23:53:10.437Z,18.54
2022-08-09T23:55:47.289Z,18.90
2022-08-09T23:58:24.289Z,18.63
